Atlas, MI

5:36 AM EDT on November 01, 2014 (GMT -0400)
Kelbel Weather | Change Station
CLOSE
Current Station
Personal Weather Station
Location: Goodrich, MI
Elevation: 892 ft
Nearby Weather Stations

Elev 892 ft 42.93 °N, 83.47 °W | Updated 1 minute ago

Overcast
Overcast
32.0 °F
Feels Like 29 °F
N
3.2
Wind Variable Wind from NNW

Today
High -- | Low -- °F
--% Chance of Precip.
Yesterday
High -- | Low -- °F
Precip. -- in
8:08 AM 6:26 PM
Waxing Gibbous, 64% visible
Pressure 30.27 in
Visibility 10.0 miles
Clouds Few 1400 ft
Few 2100 ft
Overcast 2900 ft
Windchill 29 °F
Dew Point 27 °F
Humidity 82%
Rainfall 0.00 in
Snow Depth Not available.
UV 0 out of 12
Pollen .10 out of 12
Air Quality Not available.
Flu Activity Not available.
METAR KFNT 010853Z AUTO 35013KT 10SM FEW014 FEW021 OVC029 01/M02 A3024 RMK AO2 SNE41 SLP250 P0000 60000 T00061022 51011

More Conditions Fewer Conditions

Pressure 30.27 in
Visibility 10.0 miles
Clouds Few 1400 ft
Few 2100 ft
Overcast 2900 ft
Windchill 29 °F
Dew Point 27 °F
Humidity 82%
Rainfall 0.00 in
Snow Depth Not available.
UV 0 out of 12
Pollen .10 out of 12
Air Quality Not available.
Flu Activity Not available.
METAR KFNT 010853Z AUTO 35013KT 10SM FEW014 FEW021 OVC029 01/M02 A3024 RMK AO2 SNE41 SLP250 P0000 60000 T00061022 51011

More Conditions Fewer Conditions

10-Day Weather Forecast

Almanac

Astronomy

Nov. 01, 2014 Rise Set
Actual Time
Civil Twilight
Nautical Twilight
Astronomical Twilight
Moon
Length of Visible Light
Length of Day
Tomorrow will be .
, % of the Moon is Illuminated

Today's Extremes

State Highs State Lows

Community

WunderPhotos

Upload Photos

1,766,872 photos uploaded!

WunderBlogs® & News

Nearby

Air Quality

  Air Quality AQ Index Pollutant
Not available.

Snow Depth

Station Depth Elevation

Earthquake Activity

City Distance Mag. Time & Date
Minimum magnitude displayed is 2.5.

Coastal Water Temperatures

Place Temperature

Nearby Weather Stations